Decoded Metar for PAJN (JUNEAU in AK, USA) (IATA:JNU) | Meteo·Mobile Aviation Weather
aviador You're here:

PAJN Decoded Metar

JUNEAU in AK, USA
Report Time2019-06-18 15:24:00
UTC Time2019-06-18 15:38:54
Flight Rules mvfr MVFR
Wind090° at 07 kt
W.Decomp.*RWY 08: 6.9 kt HW 1.2 kt LCW
Visibility8047 m
Phenomena:Rain
Mist
Clouds:Few 006 Hf
Scattered 027 Hf
Overcast 033 Hf
Expected CloudBase > 400 ft AGL from Temp-Dew spread
Ceiling3,300 ft
Temp10°C (ISA -5)
Dew Point09°C (94% RH)
AAT7.3°C
QNH1015 hPa
Density Alt-492 ft
Elevation16 ft
Report Wrong Elevation
Raw Report
PAJN 181524Z 09007KT 5SM RA BR FEW006 SCT027 OVC033 10/09 A2997=

Extra information for PAJN:More info

Metar Taf Metar & Taf Last 4 Metars F.Rules Stats Wind Profile Meteogram Temp Stats Airport Information Weather charts Add Link Nearby VenuesMetar ALERT Operation Metar Decoded Social comments

AIRNAV info for PAJN